sensor_id;sensor_type;location;lat;lon;timestamp;P1;durP1;ratioP1;P2;durP2;ratioP2
10880;SDS011;5493;48.884;8.338;2022-07-12T00:02:06;2.07;;;1.80;;
10880;SDS011;5493;48.884;8.338;2022-07-12T00:04:32;3.47;;;1.77;;
10880;SDS011;5493;48.884;8.338;2022-07-12T00:06:59;3.43;;;1.67;;
10880;SDS011;5493;48.884;8.338;2022-07-12T00:09:27;2.03;;;1.80;;
10880;SDS011;5493;48.884;8.338;2022-07-12T00:11:54;2.23;;;1.90;;
10880;SDS011;5493;48.884;8.338;2022-07-12T00:14:22;4.43;;;1.53;;
10880;SDS011;5493;48.884;8.338;2022-07-12T00:16:48;1.77;;;1.63;;
10880;SDS011;5493;48.884;8.338;2022-07-12T00:19:16;1.93;;;1.60;;
10880;SDS011;5493;48.884;8.338;2022-07-12T00:21:42;4.50;;;1.97;;
10880;SDS011;5493;48.884;8.338;2022-07-12T00:24:09;2.30;;;1.80;;
10880;SDS011;5493;48.884;8.338;2022-07-12T00:26:37;3.13;;;1.60;;
10880;SDS011;5493;48.884;8.338;2022-07-12T00:29:04;2.63;;;1.70;;
10880;SDS011;5493;48.884;8.338;2022-07-12T00:31:31;2.03;;;1.83;;
10880;SDS011;5493;48.884;8.338;2022-07-12T00:33:58;2.00;;;1.80;;
10880;SDS011;5493;48.884;8.338;2022-07-12T00:36:25;4.10;;;1.90;;
10880;SDS011;5493;48.884;8.338;2022-07-12T00:38:51;2.80;;;1.60;;
10880;SDS011;5493;48.884;8.338;2022-07-12T00:41:18;2.80;;;1.60;;
10880;SDS011;5493;48.884;8.338;2022-07-12T00:43:46;1.90;;;1.70;;
10880;SDS011;5493;48.884;8.338;2022-07-12T00:46:13;2.80;;;1.70;;
10880;SDS011;5493;48.884;8.338;2022-07-12T00:48:40;1.83;;;1.70;;
10880;SDS011;5493;48.884;8.338;2022-07-12T00:51:07;1.80;;;1.70;;
10880;SDS011;5493;48.884;8.338;2022-07-12T00:53:35;2.00;;;1.80;;
10880;SDS011;5493;48.884;8.338;2022-07-12T00:56:01;2.50;;;1.53;;
10880;SDS011;5493;48.884;8.338;2022-07-12T00:58:29;1.60;;;1.50;;
10880;SDS011;5493;48.884;8.338;2022-07-12T01:00:58;1.70;;;1.60;;
10880;SDS011;5493;48.884;8.338;2022-07-12T01:03:25;1.80;;;1.70;;
10880;SDS011;5493;48.884;8.338;2022-07-12T01:05:52;1.80;;;1.70;;
10880;SDS011;5493;48.884;8.338;2022-07-12T01:08:18;1.87;;;1.77;;
10880;SDS011;5493;48.884;8.338;2022-07-12T01:10:45;1.90;;;1.60;;
10880;SDS011;5493;48.884;8.338;2022-07-12T01:13:14;1.70;;;1.50;;
10880;SDS011;5493;48.884;8.338;2022-07-12T01:15:40;1.93;;;1.73;;
10880;SDS011;5493;48.884;8.338;2022-07-12T01:18:14;2.20;;;1.57;;
10880;SDS011;5493;48.884;8.338;2022-07-12T01:20:41;2.40;;;1.87;;
10880;SDS011;5493;48.884;8.338;2022-07-12T01:23:10;1.83;;;1.70;;
10880;SDS011;5493;48.884;8.338;2022-07-12T01:25:38;2.10;;;1.47;;
10880;SDS011;5493;48.884;8.338;2022-07-12T01:28:04;1.77;;;1.67;;
10880;SDS011;5493;48.884;8.338;2022-07-12T01:30:31;2.60;;;1.70;;
10880;SDS011;5493;48.884;8.338;2022-07-12T01:32:58;1.93;;;1.67;;
10880;SDS011;5493;48.884;8.338;2022-07-12T01:35:26;1.67;;;1.57;;
10880;SDS011;5493;48.884;8.338;2022-07-12T01:37:53;1.80;;;1.70;;
10880;SDS011;5493;48.884;8.338;2022-07-12T01:40:22;2.00;;;1.80;;
10880;SDS011;5493;48.884;8.338;2022-07-12T01:42:49;1.50;;;1.40;;
10880;SDS011;5493;48.884;8.338;2022-07-12T01:45:16;2.13;;;1.50;;
10880;SDS011;5493;48.884;8.338;2022-07-12T01:47:43;2.13;;;1.70;;
10880;SDS011;5493;48.884;8.338;2022-07-12T01:50:10;1.87;;;1.77;;
10880;SDS011;5493;48.884;8.338;2022-07-12T01:52:38;1.87;;;1.70;;
10880;SDS011;5493;48.884;8.338;2022-07-12T01:55:06;1.60;;;1.50;;
10880;SDS011;5493;48.884;8.338;2022-07-12T01:57:34;2.43;;;1.60;;
10880;SDS011;5493;48.884;8.338;2022-07-12T02:00:02;1.80;;;1.70;;
10880;SDS011;5493;48.884;8.338;2022-07-12T02:02:30;1.63;;;1.53;;
10880;SDS011;5493;48.884;8.338;2022-07-12T02:04:57;2.00;;;1.57;;
10880;SDS011;5493;48.884;8.338;2022-07-12T02:07:24;1.83;;;1.63;;
10880;SDS011;5493;48.884;8.338;2022-07-12T02:09:51;1.77;;;1.67;;
10880;SDS011;5493;48.884;8.338;2022-07-12T02:12:18;2.33;;;1.50;;
10880;SDS011;5493;48.884;8.338;2022-07-12T02:14:46;1.97;;;1.77;;
10880;SDS011;5493;48.884;8.338;2022-07-12T02:17:13;1.67;;;1.57;;
10880;SDS011;5493;48.884;8.338;2022-07-12T02:19:39;1.67;;;1.47;;
10880;SDS011;5493;48.884;8.338;2022-07-12T02:22:06;1.77;;;1.67;;
10880;SDS011;5493;48.884;8.338;2022-07-12T02:24:32;3.87;;;1.73;;
10880;SDS011;5493;48.884;8.338;2022-07-12T02:26:59;2.43;;;1.87;;
10880;SDS011;5493;48.884;8.338;2022-07-12T02:29:25;1.87;;;1.70;;
10880;SDS011;5493;48.884;8.338;2022-07-12T02:31:53;1.70;;;1.60;;
10880;SDS011;5493;48.884;8.338;2022-07-12T02:34:20;2.00;;;1.80;;
10880;SDS011;5493;48.884;8.338;2022-07-12T02:36:46;3.20;;;1.70;;
10880;SDS011;5493;48.884;8.338;2022-07-12T02:39:13;2.33;;;1.97;;
10880;SDS011;5493;48.884;8.338;2022-07-12T02:41:40;2.10;;;1.63;;
10880;SDS011;5493;48.884;8.338;2022-07-12T02:44:06;1.77;;;1.67;;
10880;SDS011;5493;48.884;8.338;2022-07-12T02:46:33;2.20;;;1.70;;
10880;SDS011;5493;48.884;8.338;2022-07-12T02:49:01;2.47;;;1.73;;
10880;SDS011;5493;48.884;8.338;2022-07-12T02:51:28;2.30;;;1.80;;
10880;SDS011;5493;48.884;8.338;2022-07-12T02:53:55;1.70;;;1.60;;
10880;SDS011;5493;48.884;8.338;2022-07-12T02:56:21;2.67;;;2.00;;
10880;SDS011;5493;48.884;8.338;2022-07-12T02:58:48;1.80;;;1.70;;
10880;SDS011;5493;48.884;8.338;2022-07-12T03:01:14;2.10;;;1.73;;
10880;SDS011;5493;48.884;8.338;2022-07-12T03:03:41;1.80;;;1.63;;
10880;SDS011;5493;48.884;8.338;2022-07-12T03:06:09;1.50;;;1.40;;
10880;SDS011;5493;48.884;8.338;2022-07-12T03:08:36;2.07;;;1.63;;
10880;SDS011;5493;48.884;8.338;2022-07-12T03:11:03;1.70;;;1.60;;
10880;SDS011;5493;48.884;8.338;2022-07-12T03:13:29;2.77;;;1.70;;
10880;SDS011;5493;48.884;8.338;2022-07-12T03:15:56;1.90;;;1.80;;
10880;SDS011;5493;48.884;8.338;2022-07-12T03:18:22;2.80;;;1.83;;
10880;SDS011;5493;48.884;8.338;2022-07-12T03:20:49;2.13;;;1.90;;
10880;SDS011;5493;48.884;8.338;2022-07-12T03:23:17;2.30;;;1.90;;
10880;SDS011;5493;48.884;8.338;2022-07-12T03:25:43;2.03;;;1.83;;
10880;SDS011;5493;48.884;8.338;2022-07-12T03:28:10;2.07;;;1.87;;
10880;SDS011;5493;48.884;8.338;2022-07-12T03:30:37;2.00;;;1.80;;
10880;SDS011;5493;48.884;8.338;2022-07-12T03:33:04;2.00;;;1.77;;
10880;SDS011;5493;48.884;8.338;2022-07-12T03:35:30;2.03;;;1.83;;
10880;SDS011;5493;48.884;8.338;2022-07-12T03:37:57;2.07;;;1.87;;
10880;SDS011;5493;48.884;8.338;2022-07-12T03:40:25;3.20;;;2.17;;
10880;SDS011;5493;48.884;8.338;2022-07-12T03:42:52;2.00;;;1.80;;
10880;SDS011;5493;48.884;8.338;2022-07-12T03:45:18;2.50;;;2.00;;
10880;SDS011;5493;48.884;8.338;2022-07-12T03:47:45;2.77;;;2.10;;
10880;SDS011;5493;48.884;8.338;2022-07-12T03:50:12;4.47;;;1.83;;
10880;SDS011;5493;48.884;8.338;2022-07-12T03:52:39;3.80;;;2.30;;
10880;SDS011;5493;48.884;8.338;2022-07-12T03:55:07;3.87;;;2.20;;
10880;SDS011;5493;48.884;8.338;2022-07-12T03:57:36;2.30;;;1.90;;
10880;SDS011;5493;48.884;8.338;2022-07-12T04:00:03;2.10;;;1.80;;
10880;SDS011;5493;48.884;8.338;2022-07-12T04:02:33;2.37;;;1.80;;
10880;SDS011;5493;48.884;8.338;2022-07-12T04:04:59;5.20;;;2.23;;
10880;SDS011;5493;48.884;8.338;2022-07-12T04:07:26;2.93;;;2.20;;
10880;SDS011;5493;48.884;8.338;2022-07-12T04:09:52;2.10;;;1.90;;
10880;SDS011;5493;48.884;8.338;2022-07-12T04:12:19;2.10;;;1.90;;
10880;SDS011;5493;48.884;8.338;2022-07-12T04:14:47;2.30;;;2.10;;
10880;SDS011;5493;48.884;8.338;2022-07-12T04:17:13;2.27;;;2.00;;
10880;SDS011;5493;48.884;8.338;2022-07-12T04:19:40;2.40;;;2.03;;
10880;SDS011;5493;48.884;8.338;2022-07-12T04:22:06;2.53;;;2.07;;
10880;SDS011;5493;48.884;8.338;2022-07-12T04:24:33;2.63;;;2.10;;
10880;SDS011;5493;48.884;8.338;2022-07-12T04:26:59;2.03;;;1.70;;
10880;SDS011;5493;48.884;8.338;2022-07-12T04:29:26;2.20;;;2.00;;
10880;SDS011;5493;48.884;8.338;2022-07-12T04:31:54;2.10;;;1.90;;
10880;SDS011;5493;48.884;8.338;2022-07-12T04:34:20;2.10;;;1.90;;
10880;SDS011;5493;48.884;8.338;2022-07-12T04:36:47;2.73;;;1.63;;
10880;SDS011;5493;48.884;8.338;2022-07-12T04:39:14;2.50;;;1.70;;
10880;SDS011;5493;48.884;8.338;2022-07-12T04:41:41;2.00;;;1.80;;
10880;SDS011;5493;48.884;8.338;2022-07-12T04:44:07;1.80;;;1.60;;
10880;SDS011;5493;48.884;8.338;2022-07-12T04:46:34;2.83;;;2.00;;
10880;SDS011;5493;48.884;8.338;2022-07-12T04:49:02;2.37;;;1.87;;
10880;SDS011;5493;48.884;8.338;2022-07-12T04:51:31;3.77;;;2.00;;
10880;SDS011;5493;48.884;8.338;2022-07-12T04:53:57;1.70;;;1.60;;
10880;SDS011;5493;48.884;8.338;2022-07-12T04:56:24;2.27;;;1.63;;
10880;SDS011;5493;48.884;8.338;2022-07-12T04:58:50;1.85;;;1.70;;
10880;SDS011;5493;48.884;8.338;2022-07-12T05:01:17;1.92;;;1.75;;
10880;SDS011;5493;48.884;8.338;2022-07-12T05:03:43;2.47;;;2.05;;
10880;SDS011;5493;48.884;8.338;2022-07-12T05:06:11;2.50;;;1.70;;
10880;SDS011;5493;48.884;8.338;2022-07-12T05:08:38;2.65;;;1.70;;
10880;SDS011;5493;48.884;8.338;2022-07-12T05:11:04;1.88;;;1.65;;
10880;SDS011;5493;48.884;8.338;2022-07-12T05:13:31;2.83;;;1.60;;
10880;SDS011;5493;48.884;8.338;2022-07-12T05:15:58;2.72;;;1.55;;
10880;SDS011;5493;48.884;8.338;2022-07-12T05:18:24;1.98;;;1.50;;
10880;SDS011;5493;48.884;8.338;2022-07-12T05:20:51;1.80;;;1.40;;
10880;SDS011;5493;48.884;8.338;2022-07-12T05:23:19;1.95;;;1.40;;
10880;SDS011;5493;48.884;8.338;2022-07-12T05:25:45;1.85;;;1.60;;
10880;SDS011;5493;48.884;8.338;2022-07-12T05:28:13;2.08;;;1.60;;
10880;SDS011;5493;48.884;8.338;2022-07-12T05:30:39;1.85;;;1.50;;
10880;SDS011;5493;48.884;8.338;2022-07-12T05:33:06;2.53;;;1.40;;
10880;SDS011;5493;48.884;8.338;2022-07-12T05:35:33;4.13;;;1.55;;
10880;SDS011;5493;48.884;8.338;2022-07-12T05:37:59;1.67;;;1.58;;
10880;SDS011;5493;48.884;8.338;2022-07-12T05:40:27;1.52;;;1.30;;
10880;SDS011;5493;48.884;8.338;2022-07-12T05:42:54;1.80;;;1.42;;
10880;SDS011;5493;48.884;8.338;2022-07-12T05:45:20;2.00;;;1.35;;
10880;SDS011;5493;48.884;8.338;2022-07-12T05:47:47;1.40;;;1.30;;
10880;SDS011;5493;48.884;8.338;2022-07-12T05:50:14;1.63;;;1.30;;
10880;SDS011;5493;48.884;8.338;2022-07-12T05:52:41;1.33;;;1.20;;
10880;SDS011;5493;48.884;8.338;2022-07-12T05:55:25;1.20;;;1.10;;
10880;SDS011;5493;48.884;8.338;2022-07-12T05:57:53;1.52;;;1.40;;
10880;SDS011;5493;48.884;8.338;2022-07-12T06:00:20;1.63;;;1.23;;
10880;SDS011;5493;48.884;8.338;2022-07-12T06:02:46;1.88;;;1.30;;
10880;SDS011;5493;48.884;8.338;2022-07-12T06:05:13;1.38;;;1.27;;
10880;SDS011;5493;48.884;8.338;2022-07-12T06:07:39;1.50;;;1.35;;
10880;SDS011;5493;48.884;8.338;2022-07-12T06:10:06;1.17;;;1.10;;
10880;SDS011;5493;48.884;8.338;2022-07-12T06:12:33;1.10;;;1.00;;
10880;SDS011;5493;48.884;8.338;2022-07-12T06:15:00;1.38;;;1.05;;
10880;SDS011;5493;48.884;8.338;2022-07-12T06:17:27;1.02;;;1.02;;
10880;SDS011;5493;48.884;8.338;2022-07-12T06:19:54;1.17;;;1.08;;
10880;SDS011;5493;48.884;8.338;2022-07-12T06:22:20;1.25;;;1.15;;
10880;SDS011;5493;48.884;8.338;2022-07-12T06:24:47;1.10;;;1.00;;
10880;SDS011;5493;48.884;8.338;2022-07-12T06:27:13;1.20;;;0.93;;
10880;SDS011;5493;48.884;8.338;2022-07-12T06:29:40;2.28;;;1.00;;
10880;SDS011;5493;48.884;8.338;2022-07-12T06:32:14;2.28;;;1.27;;
10880;SDS011;5493;48.884;8.338;2022-07-12T06:34:40;0.82;;;0.82;;
10880;SDS011;5493;48.884;8.338;2022-07-12T06:37:07;1.35;;;0.90;;
10880;SDS011;5493;48.884;8.338;2022-07-12T06:39:34;0.88;;;0.88;;
10880;SDS011;5493;48.884;8.338;2022-07-12T06:42:00;0.80;;;0.80;;
10880;SDS011;5493;48.884;8.338;2022-07-12T06:44:28;1.30;;;0.70;;
10880;SDS011;5493;48.884;8.338;2022-07-12T06:46:55;0.70;;;0.70;;
10880;SDS011;5493;48.884;8.338;2022-07-12T06:49:23;0.50;;;0.50;;
10880;SDS011;5493;48.884;8.338;2022-07-12T06:51:49;1.05;;;0.50;;
10880;SDS011;5493;48.884;8.338;2022-07-12T06:54:16;0.50;;;0.50;;
10880;SDS011;5493;48.884;8.338;2022-07-12T06:56:42;0.43;;;0.43;;
10880;SDS011;5493;48.884;8.338;2022-07-12T06:59:09;0.80;;;0.50;;
10880;SDS011;5493;48.884;8.338;2022-07-12T07:01:36;0.65;;;0.50;;
10880;SDS011;5493;48.884;8.338;2022-07-12T07:04:03;1.60;;;0.60;;
10880;SDS011;5493;48.884;8.338;2022-07-12T07:06:31;2.30;;;0.60;;
10880;SDS011;5493;48.884;8.338;2022-07-12T07:08:57;0.35;;;0.35;;
10880;SDS011;5493;48.884;8.338;2022-07-12T07:11:24;1.20;;;0.50;;
10880;SDS011;5493;48.884;8.338;2022-07-12T07:13:51;0.50;;;0.38;;
10880;SDS011;5493;48.884;8.338;2022-07-12T07:16:18;0.40;;;0.35;;
10880;SDS011;5493;48.884;8.338;2022-07-12T07:18:47;0.52;;;0.30;;
10880;SDS011;5493;48.884;8.338;2022-07-12T07:21:13;0.38;;;0.30;;
10880;SDS011;5493;48.884;8.338;2022-07-12T07:23:41;0.32;;;0.25;;
10880;SDS011;5493;48.884;8.338;2022-07-12T07:26:08;1.63;;;0.40;;
10880;SDS011;5493;48.884;8.338;2022-07-12T07:28:35;0.20;;;0.20;;
10880;SDS011;5493;48.884;8.338;2022-07-12T07:31:21;0.52;;;0.20;;
10880;SDS011;5493;48.884;8.338;2022-07-12T07:33:47;0.43;;;0.20;;
10880;SDS011;5493;48.884;8.338;2022-07-12T07:36:13;0.30;;;0.30;;
10880;SDS011;5493;48.884;8.338;2022-07-12T07:38:41;0.52;;;0.40;;
10880;SDS011;5493;48.884;8.338;2022-07-12T07:41:08;0.40;;;0.30;;
10880;SDS011;5493;48.884;8.338;2022-07-12T07:43:34;0.50;;;0.40;;
10880;SDS011;5493;48.884;8.338;2022-07-12T07:46:01;1.40;;;0.20;;
10880;SDS011;5493;48.884;8.338;2022-07-12T07:48:28;0.30;;;0.28;;
10880;SDS011;5493;48.884;8.338;2022-07-12T07:50:55;0.30;;;0.30;;
10880;SDS011;5493;48.884;8.338;2022-07-12T07:53:22;1.55;;;0.20;;
10880;SDS011;5493;48.884;8.338;2022-07-12T07:55:51;0.60;;;0.30;;
10880;SDS011;5493;48.884;8.338;2022-07-12T07:58:17;1.15;;;0.32;;
10880;SDS011;5493;48.884;8.338;2022-07-12T08:00:45;0.85;;;0.30;;
10880;SDS011;5493;48.884;8.338;2022-07-12T08:03:12;0.52;;;0.28;;
10880;SDS011;5493;48.884;8.338;2022-07-12T08:05:39;0.55;;;0.55;;
10880;SDS011;5493;48.884;8.338;2022-07-12T08:08:05;0.40;;;0.40;;
10880;SDS011;5493;48.884;8.338;2022-07-12T08:10:32;0.30;;;0.30;;
10880;SDS011;5493;48.884;8.338;2022-07-12T08:13:00;0.35;;;0.22;;
10880;SDS011;5493;48.884;8.338;2022-07-12T08:15:27;3.05;;;0.70;;
10880;SDS011;5493;48.884;8.338;2022-07-12T08:17:54;1.08;;;0.63;;
10880;SDS011;5493;48.884;8.338;2022-07-12T08:20:20;0.98;;;0.20;;
10880;SDS011;5493;48.884;8.338;2022-07-12T08:22:47;1.25;;;0.17;;
10880;SDS011;5493;48.884;8.338;2022-07-12T08:25:14;1.25;;;0.40;;
10880;SDS011;5493;48.884;8.338;2022-07-12T08:27:41;0.30;;;0.20;;
10880;SDS011;5493;48.884;8.338;2022-07-12T08:30:09;0.50;;;0.35;;
10880;SDS011;5493;48.884;8.338;2022-07-12T08:32:36;0.25;;;0.22;;
10880;SDS011;5493;48.884;8.338;2022-07-12T08:35:04;0.30;;;0.30;;
10880;SDS011;5493;48.884;8.338;2022-07-12T08:37:30;0.60;;;0.20;;
10880;SDS011;5493;48.884;8.338;2022-07-12T08:39:57;0.50;;;0.28;;
10880;SDS011;5493;48.884;8.338;2022-07-12T08:42:23;0.20;;;0.20;;
10880;SDS011;5493;48.884;8.338;2022-07-12T08:44:53;0.20;;;0.20;;
10880;SDS011;5493;48.884;8.338;2022-07-12T08:47:22;0.55;;;0.30;;
10880;SDS011;5493;48.884;8.338;2022-07-12T08:52:43;0.45;;;0.30;;
10880;SDS011;5493;48.884;8.338;2022-07-12T08:55:18;0.65;;;0.50;;
10880;SDS011;5493;48.884;8.338;2022-07-12T08:57:46;0.15;;;0.15;;
10880;SDS011;5493;48.884;8.338;2022-07-12T09:00:13;0.50;;;0.40;;
10880;SDS011;5493;48.884;8.338;2022-07-12T09:02:45;1.75;;;0.30;;
10880;SDS011;5493;48.884;8.338;2022-07-12T09:05:13;0.68;;;0.43;;
10880;SDS011;5493;48.884;8.338;2022-07-12T09:07:40;0.40;;;0.40;;
10880;SDS011;5493;48.884;8.338;2022-07-12T09:10:08;0.40;;;0.38;;
10880;SDS011;5493;48.884;8.338;2022-07-12T09:12:36;0.60;;;0.40;;
10880;SDS011;5493;48.884;8.338;2022-07-12T09:15:16;0.52;;;0.40;;
10880;SDS011;5493;48.884;8.338;2022-07-12T09:17:59;0.25;;;0.25;;
10880;SDS011;5493;48.884;8.338;2022-07-12T09:20:27;0.90;;;0.30;;
10880;SDS011;5493;48.884;8.338;2022-07-12T09:22:55;0.38;;;0.38;;
10880;SDS011;5493;48.884;8.338;2022-07-12T09:25:23;0.32;;;0.30;;
10880;SDS011;5493;48.884;8.338;2022-07-12T09:27:50;0.50;;;0.50;;
10880;SDS011;5493;48.884;8.338;2022-07-12T09:30:19;1.85;;;0.52;;
10880;SDS011;5493;48.884;8.338;2022-07-12T09:32:51;0.60;;;0.60;;
10880;SDS011;5493;48.884;8.338;2022-07-12T09:35:38;0.30;;;0.30;;
10880;SDS011;5493;48.884;8.338;2022-07-12T09:38:23;0.80;;;0.50;;
10880;SDS011;5493;48.884;8.338;2022-07-12T09:40:50;0.75;;;0.70;;
10880;SDS011;5493;48.884;8.338;2022-07-12T09:43:17;0.90;;;0.60;;
10880;SDS011;5493;48.884;8.338;2022-07-12T09:45:46;0.63;;;0.60;;
10880;SDS011;5493;48.884;8.338;2022-07-12T09:48:13;0.45;;;0.45;;
10880;SDS011;5493;48.884;8.338;2022-07-12T09:50:41;0.38;;;0.38;;
10880;SDS011;5493;48.884;8.338;2022-07-12T09:53:14;1.10;;;0.60;;
10880;SDS011;5493;48.884;8.338;2022-07-12T09:55:47;0.30;;;0.30;;
10880;SDS011;5493;48.884;8.338;2022-07-12T09:58:16;0.73;;;0.20;;
10880;SDS011;5493;48.884;8.338;2022-07-12T10:00:49;0.30;;;0.30;;
10880;SDS011;5493;48.884;8.338;2022-07-12T10:03:19;0.30;;;0.30;;
10880;SDS011;5493;48.884;8.338;2022-07-12T10:05:50;1.02;;;0.38;;
10880;SDS011;5493;48.884;8.338;2022-07-12T10:08:18;0.32;;;0.25;;
10880;SDS011;5493;48.884;8.338;2022-07-12T10:10:46;0.30;;;0.20;;
10880;SDS011;5493;48.884;8.338;2022-07-12T10:13:13;0.20;;;0.20;;
10880;SDS011;5493;48.884;8.338;2022-07-12T10:15:41;0.25;;;0.10;;
10880;SDS011;5493;48.884;8.338;2022-07-12T10:18:14;0.30;;;0.28;;
10880;SDS011;5493;48.884;8.338;2022-07-12T10:20:42;1.95;;;0.25;;
10880;SDS011;5493;48.884;8.338;2022-07-12T10:26:00;0.40;;;0.40;;
10880;SDS011;5493;48.884;8.338;2022-07-12T10:29:02;0.20;;;0.20;;
10880;SDS011;5493;48.884;8.338;2022-07-12T10:31:33;2.63;;;0.30;;
10880;SDS011;5493;48.884;8.338;2022-07-12T10:34:13;0.28;;;0.20;;
10880;SDS011;5493;48.884;8.338;2022-07-12T10:37:07;0.50;;;0.30;;
10880;SDS011;5493;48.884;8.338;2022-07-12T10:39:38;0.30;;;0.20;;
10880;SDS011;5493;48.884;8.338;2022-07-12T10:42:14;0.20;;;0.20;;
10880;SDS011;5493;48.884;8.338;2022-07-12T10:44:43;0.20;;;0.10;;
10880;SDS011;5493;48.884;8.338;2022-07-12T10:47:12;0.25;;;0.20;;
10880;SDS011;5493;48.884;8.338;2022-07-12T10:49:47;0.20;;;0.20;;
10880;SDS011;5493;48.884;8.338;2022-07-12T10:52:16;0.32;;;0.20;;
10880;SDS011;5493;48.884;8.338;2022-07-12T10:57:44;0.20;;;0.10;;
10880;SDS011;5493;48.884;8.338;2022-07-12T11:00:12;0.15;;;0.10;;
10880;SDS011;5493;48.884;8.338;2022-07-12T11:02:40;0.20;;;0.20;;
10880;SDS011;5493;48.884;8.338;2022-07-12T11:05:07;0.20;;;0.10;;
10880;SDS011;5493;48.884;8.338;2022-07-12T11:07:34;0.57;;;0.15;;
10880;SDS011;5493;48.884;8.338;2022-07-12T11:10:01;0.20;;;0.20;;
10880;SDS011;5493;48.884;8.338;2022-07-12T11:12:30;0.38;;;0.10;;
10880;SDS011;5493;48.884;8.338;2022-07-12T11:14:58;0.32;;;0.20;;
10880;SDS011;5493;48.884;8.338;2022-07-12T11:17:25;0.43;;;0.10;;
10880;SDS011;5493;48.884;8.338;2022-07-12T11:20:02;0.10;;;0.10;;
10880;SDS011;5493;48.884;8.338;2022-07-12T11:22:30;0.20;;;0.20;;
10880;SDS011;5493;48.884;8.338;2022-07-12T11:24:57;0.25;;;0.20;;
10880;SDS011;5493;48.884;8.338;2022-07-12T11:27:24;0.28;;;0.17;;
10880;SDS011;5493;48.884;8.338;2022-07-12T11:29:59;0.22;;;0.22;;
10880;SDS011;5493;48.884;8.338;2022-07-12T11:32:33;0.20;;;0.10;;
10880;SDS011;5493;48.884;8.338;2022-07-12T11:35:00;0.00;;;0.00;;
10880;SDS011;5493;48.884;8.338;2022-07-12T11:37:27;0.00;;;0.00;;
10880;SDS011;5493;48.884;8.338;2022-07-12T11:39:55;0.10;;;0.10;;
10880;SDS011;5493;48.884;8.338;2022-07-12T11:42:22;1.27;;;0.32;;
10880;SDS011;5493;48.884;8.338;2022-07-12T11:44:49;0.47;;;0.20;;
10880;SDS011;5493;48.884;8.338;2022-07-12T11:47:18;1.00;;;0.10;;
10880;SDS011;5493;48.884;8.338;2022-07-12T11:49:50;0.22;;;0.20;;
10880;SDS011;5493;48.884;8.338;2022-07-12T11:52:17;2.22;;;0.30;;
10880;SDS011;5493;48.884;8.338;2022-07-12T11:54:45;0.40;;;0.22;;
10880;SDS011;5493;48.884;8.338;2022-07-12T11:57:12;0.20;;;0.20;;
10880;SDS011;5493;48.884;8.338;2022-07-12T11:59:40;2.17;;;0.25;;
10880;SDS011;5493;48.884;8.338;2022-07-12T12:02:07;0.30;;;0.22;;
10880;SDS011;5493;48.884;8.338;2022-07-12T12:04:44;0.70;;;0.13;;
10880;SDS011;5493;48.884;8.338;2022-07-12T12:07:12;3.80;;;0.30;;
10880;SDS011;5493;48.884;8.338;2022-07-12T12:12:34;0.20;;;0.20;;
10880;SDS011;5493;48.884;8.338;2022-07-12T12:15:03;0.22;;;0.22;;
10880;SDS011;5493;48.884;8.338;2022-07-12T12:17:31;1.02;;;0.20;;
10880;SDS011;5493;48.884;8.338;2022-07-12T12:20:03;0.20;;;0.20;;
10880;SDS011;5493;48.884;8.338;2022-07-12T12:22:34;1.75;;;0.20;;
10880;SDS011;5493;48.884;8.338;2022-07-12T12:25:03;0.17;;;0.15;;
10880;SDS011;5493;48.884;8.338;2022-07-12T12:27:31;1.20;;;0.30;;
10880;SDS011;5493;48.884;8.338;2022-07-12T12:29:58;0.82;;;0.30;;
10880;SDS011;5493;48.884;8.338;2022-07-12T12:32:25;1.02;;;0.22;;
10880;SDS011;5493;48.884;8.338;2022-07-12T12:35:09;0.10;;;0.10;;
10880;SDS011;5493;48.884;8.338;2022-07-12T12:37:37;0.20;;;0.13;;
10880;SDS011;5493;48.884;8.338;2022-07-12T12:40:04;0.30;;;0.20;;
10880;SDS011;5493;48.884;8.338;2022-07-12T12:42:31;2.22;;;0.30;;
10880;SDS011;5493;48.884;8.338;2022-07-12T12:44:58;2.00;;;0.32;;
10880;SDS011;5493;48.884;8.338;2022-07-12T12:47:24;0.28;;;0.28;;
10880;SDS011;5493;48.884;8.338;2022-07-12T12:49:57;1.33;;;0.22;;
10880;SDS011;5493;48.884;8.338;2022-07-12T12:52:28;0.63;;;0.17;;
10880;SDS011;5493;48.884;8.338;2022-07-12T12:54:55;1.95;;;0.30;;
10880;SDS011;5493;48.884;8.338;2022-07-12T12:57:23;0.10;;;0.10;;
10880;SDS011;5493;48.884;8.338;2022-07-12T12:59:50;1.40;;;0.28;;
10880;SDS011;5493;48.884;8.338;2022-07-12T13:02:17;0.25;;;0.20;;
10880;SDS011;5493;48.884;8.338;2022-07-12T13:04:45;0.68;;;0.30;;
10880;SDS011;5493;48.884;8.338;2022-07-12T13:07:12;0.40;;;0.40;;
10880;SDS011;5493;48.884;8.338;2022-07-12T13:09:40;0.90;;;0.25;;
10880;SDS011;5493;48.884;8.338;2022-07-12T13:12:07;0.70;;;0.20;;
10880;SDS011;5493;48.884;8.338;2022-07-12T13:14:34;0.77;;;0.50;;
10880;SDS011;5493;48.884;8.338;2022-07-12T13:17:00;0.10;;;0.10;;
10880;SDS011;5493;48.884;8.338;2022-07-12T13:19:27;0.52;;;0.40;;
10880;SDS011;5493;48.884;8.338;2022-07-12T13:21:53;0.45;;;0.20;;
10880;SDS011;5493;48.884;8.338;2022-07-12T13:24:20;0.40;;;0.30;;
10880;SDS011;5493;48.884;8.338;2022-07-12T13:26:48;0.30;;;0.30;;
10880;SDS011;5493;48.884;8.338;2022-07-12T13:29:14;1.27;;;0.40;;
10880;SDS011;5493;48.884;8.338;2022-07-12T13:31:41;0.35;;;0.30;;
10880;SDS011;5493;48.884;8.338;2022-07-12T13:34:08;2.47;;;0.30;;
10880;SDS011;5493;48.884;8.338;2022-07-12T13:36:34;0.30;;;0.30;;
10880;SDS011;5493;48.884;8.338;2022-07-12T13:39:01;3.88;;;0.43;;
10880;SDS011;5493;48.884;8.338;2022-07-12T13:41:42;1.30;;;0.40;;
10880;SDS011;5493;48.884;8.338;2022-07-12T13:44:10;0.30;;;0.20;;
10880;SDS011;5493;48.884;8.338;2022-07-12T13:46:36;0.88;;;0.20;;
10880;SDS011;5493;48.884;8.338;2022-07-12T13:49:03;0.70;;;0.20;;
10880;SDS011;5493;48.884;8.338;2022-07-12T13:51:30;0.70;;;0.35;;
10880;SDS011;5493;48.884;8.338;2022-07-12T13:53:57;0.47;;;0.32;;
10880;SDS011;5493;48.884;8.338;2022-07-12T13:56:23;0.75;;;0.30;;
10880;SDS011;5493;48.884;8.338;2022-07-12T13:58:50;0.30;;;0.10;;
10880;SDS011;5493;48.884;8.338;2022-07-12T14:01:18;1.33;;;0.40;;
10880;SDS011;5493;48.884;8.338;2022-07-12T14:03:45;1.05;;;0.28;;
10880;SDS011;5493;48.884;8.338;2022-07-12T14:06:11;0.20;;;0.20;;
10880;SDS011;5493;48.884;8.338;2022-07-12T14:08:38;2.17;;;0.30;;
10880;SDS011;5493;48.884;8.338;2022-07-12T14:11:05;2.28;;;0.40;;
10880;SDS011;5493;48.884;8.338;2022-07-12T14:13:31;1.52;;;0.20;;
10880;SDS011;5493;48.884;8.338;2022-07-12T14:15:58;0.63;;;0.20;;
10880;SDS011;5493;48.884;8.338;2022-07-12T14:18:26;1.25;;;0.40;;
10880;SDS011;5493;48.884;8.338;2022-07-12T14:20:52;0.45;;;0.30;;
10880;SDS011;5493;48.884;8.338;2022-07-12T14:23:19;0.88;;;0.30;;
10880;SDS011;5493;48.884;8.338;2022-07-12T14:25:46;0.50;;;0.30;;
10880;SDS011;5493;48.884;8.338;2022-07-12T14:28:12;1.90;;;0.32;;
10880;SDS011;5493;48.884;8.338;2022-07-12T14:30:39;0.50;;;0.47;;
10880;SDS011;5493;48.884;8.338;2022-07-12T14:33:05;1.30;;;0.32;;
10880;SDS011;5493;48.884;8.338;2022-07-12T14:35:33;0.60;;;0.20;;
10880;SDS011;5493;48.884;8.338;2022-07-12T14:38:00;1.02;;;0.30;;
10880;SDS011;5493;48.884;8.338;2022-07-12T14:40:26;0.77;;;0.30;;
10880;SDS011;5493;48.884;8.338;2022-07-12T14:42:53;1.23;;;0.40;;
10880;SDS011;5493;48.884;8.338;2022-07-12T14:45:22;1.25;;;0.30;;
10880;SDS011;5493;48.884;8.338;2022-07-12T14:47:48;0.80;;;0.30;;
10880;SDS011;5493;48.884;8.338;2022-07-12T14:50:15;0.60;;;0.40;;
10880;SDS011;5493;48.884;8.338;2022-07-12T14:52:43;0.60;;;0.30;;
10880;SDS011;5493;48.884;8.338;2022-07-12T14:55:10;0.57;;;0.25;;
10880;SDS011;5493;48.884;8.338;2022-07-12T14:57:37;0.43;;;0.38;;
10880;SDS011;5493;48.884;8.338;2022-07-12T15:00:04;1.63;;;0.40;;
10880;SDS011;5493;48.884;8.338;2022-07-12T15:02:32;0.35;;;0.25;;
10880;SDS011;5493;48.884;8.338;2022-07-12T15:04:59;0.47;;;0.30;;
10880;SDS011;5493;48.884;8.338;2022-07-12T15:07:28;2.33;;;0.43;;
10880;SDS011;5493;48.884;8.338;2022-07-12T15:09:56;1.15;;;0.30;;
10880;SDS011;5493;48.884;8.338;2022-07-12T15:12:23;0.52;;;0.45;;
10880;SDS011;5493;48.884;8.338;2022-07-12T15:14:50;0.30;;;0.30;;
10880;SDS011;5493;48.884;8.338;2022-07-12T15:17:17;1.02;;;0.40;;